ASN logo
ASN Wikibase Occurrence # 182357
Last updated: 17 October 2018
This information is added by users of ASN. Neither ASN nor the Flight Safety Foundation are responsible for the completeness or correctness of this information. If you feel this information is incomplete or incorrect, you can submit corrected information.

Date:07-DEC-2015
Time:19:06 LT
Type:Silhouette image of generic D328 model; specific model in this crash may look slightly different
Dornier 328-110
Owner/operator:SkyWork Airlines
Registration: HB-AEO
C/n / msn: 3061
Fatalities:Fatalities: 0 / Occupants: 17
Other fatalities:0
Aircraft damage: None
Category:Serious incident
Location:Berne-Belp Airport (BRN/LSZB) -   Switzerland
Phase: Taxi
Nature:International Scheduled Passenger
Departure airport:Berne-Belp Airport (BRN/LSZB)
Destination airport:Hamburg-Fuhlsbüttel Airport (HAM/EDDH)
Investigating agency: STSB Switzerland
Narrative:
SkyWork Airlines flight SX 206 from Berne-Belp (LSZB) to Hamburg (EDDH) was operated by a Dornier 328-100 (HB-AEO). On board were three crew members and 14 passengers.
Due to the prevailing weather situation in Hamburg, the departure was delayed by half an hour. During this period, the forecast fog rose above Bern-Belp. At 19:03:21, the air traffic controller gave the flight crew permission to taxi on the runway to the starting position of runway 14. Only a few seconds later, the controller announced that the Runway Visual Range (RVR) was now 600 metres. While taxiing, the crew decided to consider the safety speeds for icing conditions for takeoff. The copilot used the electronic flight bag (EFB) carried on board for this purpose. He informed the commander that he would no longer look outside. The commander did not see the yellow line painted on the ground at the transition from the end of the runway to the runway turn pad. This line should lead him optically for the coming change of direction by 180°. The speed in this phase was about 20 kt. When the commander noticed that he had lost the orientation along the runway, he began to brake. The plane came to a standstill in the grass immediately after the runway turn pad.
The plane was not damaged and the occupants remained unharmed.

Causes:
The serious incident consisted of a collision with obstacles that was only just prevented, because the aircraft was rolled to take-off position at a speed not adapted to the marginal visibility conditions, the crew lost orientation and the aircraft could no longer be braked in time. As a consequence, the airplane came only immediately to a standstill after the runway turn pad and just before the approach lights in the grass.
The following factors contributed to the serious incident:
- Priority setting not adapted to the situation;
- Poorly visible limitation lights on the runway turn pad.


METAR LSZB 071750Z 32003KT 0300 R14/0700D FG VV001 03/03 Q1032 NOSIG
METAR LSZB 071820Z AUTO 34004KT 0150 R14/0500D FG VV001 02/02 Q1033
METAR LSZB 071850Z AUTO 30005KT 0250 R14/0550D FG VV001 03/03 Q1033

Sources:

STSB

Accident investigation:
cover
  
Investigating agency: STSB Switzerland
Status: Investigation completed
Duration:
Download report: Final report


Images:


Photo: STSB

Revision history:

Date/timeContributorUpdates
15-Dec-2015 20:01 harro Added
15-Dec-2015 20:03 harro Updated [Narrative]
03-Oct-2018 09:57 harro Updated [Time, Source, Narrative, Photo, Accident report, ]

Corrections or additions? ... Edit this accident description